Time;durP1;ratioP1;P1;durP2;ratioP2;P2;SDS_P1;SDS_P2;PMS_P1;PMS_P2;Temp;Humidity;BMP_temperature;BMP_pressure;BME280_temperature;BME280_humidity;BME280_pressure;Samples;Min_cycle;Max_cycle;Signal;HPM_P1;HPM_P2
2023/04/17 00:02:09;;;;;;;58.72;40.05;;;;;;;7.45;100.00;162512.75;5091400;28;20043;-60
2023/04/17 00:04:35;;;;;;;59.17;38.80;;;;;;;7.51;100.00;162528.91;5090821;28;20429;-60
2023/04/17 00:07:02;;;;;;;57.40;41.03;;;;;;;7.57;100.00;162543.75;5091815;28;20079;-60
2023/04/17 00:09:30;;;;;;;59.53;40.33;;;;;;;7.56;100.00;162542.38;5090336;28;20036;-60
2023/04/17 00:11:56;;;;;;;52.15;39.55;;;;;;;7.57;100.00;162543.75;5086470;28;20368;-60
2023/04/17 00:14:21;;;;;;;61.45;44.63;;;;;;;7.54;100.00;162537.00;5069932;28;20052;-60
2023/04/17 00:16:47;;;;;;;58.50;40.45;;;;;;;7.56;100.00;162542.38;5071465;28;20074;-60
2023/04/17 00:19:12;;;;;;;56.15;41.30;;;;;;;7.55;100.00;162539.72;5069755;28;20503;-60
2023/04/17 00:21:37;;;;;;;55.42;39.97;;;;;;;7.50;100.00;162524.88;5071180;28;20040;-60
2023/04/17 00:24:03;;;;;;;57.80;42.40;;;;;;;7.52;100.00;162531.59;5069349;28;20060;-60
2023/04/17 00:26:28;;;;;;;53.45;39.00;;;;;;;7.54;100.00;162537.00;5071413;28;20031;-60
2023/04/17 00:28:54;;;;;;;67.00;45.38;;;;;;;7.54;100.00;162537.00;5069659;28;20078;-59
2023/04/17 00:31:19;;;;;;;58.30;41.95;;;;;;;7.51;100.00;162528.91;5071238;28;20086;-60
2023/04/17 00:33:45;;;;;;;66.93;41.03;;;;;;;7.47;100.00;162519.47;5071266;28;20032;-59
2023/04/17 00:36:12;;;;;;;61.40;41.28;;;;;;;7.54;100.00;162537.00;5069338;28;20115;-60
2023/04/17 00:38:37;;;;;;;54.08;38.45;;;;;;;7.47;100.00;162519.47;5071109;28;20104;-60
2023/04/17 00:41:03;;;;;;;56.75;41.75;;;;;;;7.45;100.00;162512.75;5069295;28;20040;-60
2023/04/17 00:43:28;;;;;;;60.08;40.95;;;;;;;7.45;100.00;162514.06;5070964;28;20379;-60
2023/04/17 00:45:53;;;;;;;59.92;42.17;;;;;;;7.43;100.00;162508.72;5068912;28;20101;-60
2023/04/17 00:48:22;;;;;;;56.85;39.90;;;;;;;7.42;100.00;162504.66;5070938;28;20025;-60
2023/04/17 00:50:49;;;;;;;59.90;38.58;;;;;;;7.42;100.00;162504.66;5069446;28;20127;-60
2023/04/17 00:53:14;;;;;;;62.58;41.92;;;;;;;7.44;100.00;162510.06;5070287;28;20100;-60
2023/04/17 00:55:41;;;;;;;61.38;42.10;;;;;;;7.43;100.00;162507.34;5069164;28;20110;-60
2023/04/17 00:58:07;;;;;;;55.75;40.58;;;;;;;7.43;100.00;162507.34;5070608;28;20471;-59
2023/04/17 01:00:33;;;;;;;57.78;41.75;;;;;;;7.45;100.00;162512.75;5069163;28;20110;-60
2023/04/17 01:02:59;;;;;;;70.00;45.60;;;;;;;7.41;100.00;162502.00;5070544;28;20099;-60
2023/04/17 01:05:26;;;;;;;71.28;46.58;;;;;;;7.41;100.00;162502.00;5069213;28;20036;-60
2023/04/17 01:07:53;;;;;;;61.72;44.05;;;;;;;7.41;100.00;162503.31;5070391;28;20027;-60
2023/04/17 01:10:18;;;;;;;68.88;46.05;;;;;;;7.42;100.00;162506.03;5069330;28;20093;-59
2023/04/17 01:12:47;;;;;;;58.75;41.42;;;;;;;7.44;100.00;162510.06;5070627;28;20472;-59
2023/04/17 01:15:13;;;;;;;57.30;43.53;;;;;;;7.41;100.00;162502.00;5068593;28;20051;-59
2023/04/17 01:17:39;;;;;;;63.38;41.38;;;;;;;7.38;100.00;162493.91;5070694;28;20021;-59
2023/04/17 01:20:09;;;;;;;62.22;43.10;;;;;;;7.35;100.00;162487.16;5068805;28;20036;-58
2023/04/17 01:22:35;;;;;;;60.47;45.03;;;;;;;7.38;100.00;162495.22;5070125;28;20048;-59
2023/04/17 01:25:00;;;;;;;72.15;49.60;;;;;;;7.40;100.00;162500.63;5069530;28;20047;-61
2023/04/17 01:27:26;;;;;;;66.65;45.80;;;;;;;7.39;100.00;162496.59;5070754;28;20032;-58
2023/04/17 01:29:51;;;;;;;60.15;39.28;;;;;;;7.42;100.00;162504.66;5073329;28;20047;-58
2023/04/17 01:32:17;;;;;;;64.55;46.85;;;;;;;7.40;100.00;162500.63;5090556;28;20027;-58
2023/04/17 01:34:42;;;;;;;74.20;44.40;;;;;;;7.38;100.00;162493.91;5089304;28;20036;-58
2023/04/17 01:37:07;;;;;;;71.63;47.42;;;;;;;7.36;100.00;162489.88;5089748;28;20491;-58
2023/04/17 01:39:34;;;;;;;71.35;45.75;;;;;;;7.39;100.00;162496.59;5089119;28;20044;-58
2023/04/17 01:41:59;;;;;;;66.95;40.97;;;;;;;7.39;100.00;162496.59;5090220;28;20032;-59
2023/04/17 01:44:25;;;;;;;68.38;45.92;;;;;;;7.39;100.00;162496.59;5085263;28;20491;-60
2023/04/17 01:46:50;;;;;;;62.33;43.83;;;;;;;7.41;100.00;162502.00;5070338;28;20024;-60
2023/04/17 01:49:16;;;;;;;70.20;46.45;;;;;;;7.39;100.00;162496.59;5068685;28;20496;-59
2023/04/17 01:51:41;;;;;;;71.22;45.53;;;;;;;7.33;100.00;162480.44;5070083;28;20074;-59
2023/04/17 01:54:06;;;;;;;65.43;44.13;;;;;;;7.39;100.00;162496.59;5068413;28;20028;-59
2023/04/17 01:56:32;;;;;;;66.57;46.45;;;;;;;7.38;100.00;162493.91;5070139;28;20016;-58
2023/04/17 01:58:57;;;;;;;72.22;45.13;;;;;;;7.37;100.00;162491.19;5068330;28;20054;-59
2023/04/17 02:01:23;;;;;;;65.10;45.97;;;;;;;7.34;100.00;162484.47;5070278;28;20025;-59
2023/04/17 02:03:48;;;;;;;71.72;45.10;;;;;;;7.33;100.00;162480.44;5073086;28;20017;-59
2023/04/17 02:06:14;;;;;;;68.38;43.90;;;;;;;7.35;100.00;162485.78;5088536;28;20090;-59
2023/04/17 02:08:40;;;;;;;65.07;43.30;;;;;;;7.36;100.00;162488.50;5090212;28;20502;-59
2023/04/17 02:11:05;;;;;;;70.60;43.30;;;;;;;7.36;100.00;162488.50;5088668;28;20032;-59
2023/04/17 02:13:30;;;;;;;84.93;51.20;;;;;;;7.32;100.00;162479.06;5090635;28;20035;-60
2023/04/17 02:15:56;;;;;;;78.32;51.28;;;;;;;7.36;100.00;162488.50;5088248;28;20093;-60
2023/04/17 02:18:22;;;;;;;71.43;48.10;;;;;;;7.36;100.00;162488.50;5090317;28;20020;-60
2023/04/17 02:20:47;;;;;;;77.82;49.72;;;;;;;7.37;100.00;162491.19;5088671;28;20051;-60
2023/04/17 02:23:12;;;;;;;80.50;52.00;;;;;;;7.36;100.00;162488.50;5092195;28;20038;-60
2023/04/17 02:25:38;;;;;;;81.32;49.92;;;;;;;7.38;100.00;162493.91;5092436;28;20039;-60
2023/04/17 02:28:03;;;;;;;83.22;51.10;;;;;;;7.33;100.00;162481.75;5093678;28;20085;-60
2023/04/17 02:30:29;;;;;;;72.40;50.90;;;;;;;7.39;100.00;162496.59;5089159;28;20048;-60
2023/04/17 02:32:55;;;;;;;76.10;50.22;;;;;;;7.41;100.00;162502.00;5073518;28;20539;-60
2023/04/17 02:35:22;;;;;;;84.40;55.40;;;;;;;7.42;100.00;162504.66;5072013;28;20040;-60
2023/04/17 02:37:47;;;;;;;89.35;57.15;;;;;;;7.40;100.00;162499.28;5073030;28;20030;-60
2023/04/17 02:40:14;;;;;;;84.82;55.45;;;;;;;7.39;100.00;162497.91;5071614;28;20052;-60
2023/04/17 02:42:39;;;;;;;96.90;55.67;;;;;;;7.37;100.00;162491.19;5073257;28;20024;-60
2023/04/17 02:45:05;;;;;;;95.38;57.60;;;;;;;7.37;100.00;162491.19;5071362;28;20055;-60
2023/04/17 02:47:30;;;;;;;88.50;52.58;;;;;;;7.36;100.00;162488.50;5073171;28;20021;-60
2023/04/17 02:49:56;;;;;;;81.05;54.67;;;;;;;7.38;100.00;162493.91;5071407;28;20041;-60
2023/04/17 02:52:22;;;;;;;86.55;54.88;;;;;;;7.38;100.00;162493.91;5072742;28;20025;-60
2023/04/17 02:54:47;;;;;;;88.05;57.20;;;;;;;7.38;100.00;162493.91;5071309;28;20036;-60
2023/04/17 02:57:12;;;;;;;88.00;55.05;;;;;;;7.37;100.00;162491.19;5072840;28;20461;-60
2023/04/17 02:59:38;;;;;;;91.22;59.80;;;;;;;7.39;100.00;162496.59;5071134;28;20040;-60
2023/04/17 03:02:04;;;;;;;94.18;54.38;;;;;;;7.40;100.00;162499.28;5072898;28;20025;-60
2023/04/17 03:04:29;;;;;;;89.45;53.00;;;;;;;7.40;100.00;162499.28;5071404;28;20506;-60
2023/04/17 03:06:54;;;;;;;88.55;58.70;;;;;;;7.37;100.00;162491.19;5072284;28;20036;-60
2023/04/17 03:09:23;;;;;;;101.18;62.33;;;;;;;7.40;100.00;162499.28;5071575;28;20083;-60
2023/04/17 03:11:48;;;;;;;;;;;;;;;7.39;100.00;162496.59;5073483;28;20588;-60
2023/04/17 03:14:14;;;;;;;95.72;56.20;;;;;;;7.33;100.00;162480.44;5070643;28;19923;-60
2023/04/17 03:16:39;;;;;;;100.85;62.40;;;;;;;7.37;100.00;162492.50;5072718;28;20470;-60
2023/04/17 03:19:05;;;;;;;101.20;62.80;;;;;;;7.35;100.00;162487.16;5070899;28;20050;-60
2023/04/17 03:21:30;;;;;;;103.57;68.53;;;;;;;7.34;100.00;162484.47;5072326;28;20041;-59
2023/04/17 03:23:56;;;;;;;109.75;66.13;;;;;;;7.35;100.00;162485.78;5069182;28;20376;-59
2023/04/17 03:26:21;;;;;;;119.90;63.15;;;;;;;7.23;100.00;162456.19;5072335;28;20028;-59
2023/04/17 03:28:46;;;;;;;112.55;64.18;;;;;;;7.15;100.00;162434.63;5072212;28;20043;-59
2023/04/17 03:31:12;;;;;;;102.40;60.90;;;;;;;7.33;100.00;162480.44;5070710;28;20044;-59
2023/04/17 03:33:37;;;;;;;106.53;57.42;;;;;;;7.29;100.00;162471.00;5071353;28;20016;-59
2023/04/17 03:36:03;;;;;;;98.82;61.70;;;;;;;7.29;100.00;162472.34;5070078;28;20043;-59
2023/04/17 03:38:28;;;;;;;104.03;59.85;;;;;;;7.30;100.00;162475.03;5072101;28;20024;-59
2023/04/17 03:40:54;;;;;;;94.70;58.92;;;;;;;7.29;100.00;162472.34;5077573;28;20043;-59
2023/04/17 03:43:19;;;;;;;102.43;61.58;;;;;;;7.28;100.00;162469.63;5092038;28;20024;-59
2023/04/17 03:45:44;;;;;;;106.25;64.72;;;;;;;7.33;100.00;162481.75;5090830;28;20040;-59
2023/04/17 03:48:10;;;;;;;108.47;61.45;;;;;;;7.31;100.00;162476.38;5092135;28;20040;-59
2023/04/17 03:50:35;;;;;;;107.97;63.33;;;;;;;7.29;100.00;162471.00;5087963;28;20243;-60
2023/04/17 03:53:01;;;;;;;108.97;62.88;;;;;;;7.32;100.00;162479.06;5086867;28;20028;-57
2023/04/17 03:55:26;;;;;;;109.85;62.65;;;;;;;7.33;100.00;162480.44;5076169;28;20522;-58
2023/04/17 03:57:51;;;;;;;115.15;66.28;;;;;;;7.30;100.00;162475.03;5074239;28;20383;-57
2023/04/17 04:00:17;;;;;;;110.22;61.58;;;;;;;7.31;100.00;162476.38;5070185;28;20075;-57
2023/04/17 04:02:42;;;;;;;115.93;59.38;;;;;;;7.30;100.00;162475.03;5072038;28;20594;-57
2023/04/17 04:05:08;;;;;;;104.90;63.58;;;;;;;7.29;100.00;162472.34;5069622;28;20043;-57
2023/04/17 04:07:33;;;;;;;102.90;58.20;;;;;;;7.33;100.00;162480.44;5075947;28;20379;-57
2023/04/17 04:09:59;;;;;;;107.28;63.70;;;;;;;7.33;100.00;162480.44;5081737;28;20047;-57
2023/04/17 04:12:24;;;;;;;106.90;61.05;;;;;;;7.35;100.00;162485.78;5085035;28;20266;-57
2023/04/17 04:14:49;;;;;;;99.65;57.53;;;;;;;7.33;100.00;162480.44;5088482;28;20066;-57
2023/04/17 04:17:14;;;;;;;119.55;66.07;;;;;;;7.26;100.00;162464.22;5091463;28;20383;-57
2023/04/17 04:19:41;;;;;;;125.63;65.20;;;;;;;7.32;100.00;162479.06;5089818;28;20036;-57
2023/04/17 04:22:07;;;;;;;104.78;62.47;;;;;;;7.26;100.00;162464.22;5091336;28;20563;-57
2023/04/17 04:24:32;;;;;;;99.25;61.95;;;;;;;7.33;100.00;162480.44;5086824;28;20040;-57
2023/04/17 04:27:03;;;;;;;100.50;61.63;;;;;;;7.34;100.00;162484.47;5090852;28;20043;-57
2023/04/17 04:29:29;;;;;;;100.28;59.33;;;;;;;7.32;100.00;162477.75;5090329;28;20544;-57
2023/04/17 04:31:54;;;;;;;93.25;60.55;;;;;;;7.36;100.00;162488.50;5091086;28;20216;-57
2023/04/17 04:34:20;;;;;;;92.90;57.63;;;;;;;7.36;100.00;162488.50;5089761;28;20032;-57
2023/04/17 04:36:49;;;;;;;108.63;66.05;;;;;;;7.37;100.00;162491.19;5091724;28;20458;-57
2023/04/17 04:39:19;;;;;;;129.73;75.57;;;;;;;7.36;100.00;162488.50;5089906;28;20032;-57
2023/04/17 04:41:51;;;;;;;166.38;91.60;;;;;;;7.38;100.00;162493.91;5091429;28;20070;-57
2023/04/17 04:44:17;;;;;;;108.95;64.32;;;;;;;7.35;100.00;162485.78;5089678;28;20488;-57
2023/04/17 04:46:43;;;;;;;112.20;68.90;;;;;;;7.36;100.00;162488.50;5090909;28;20093;-57
2023/04/17 04:49:08;;;;;;;100.72;56.30;;;;;;;7.38;100.00;162495.22;5089154;28;20032;-57
2023/04/17 04:51:34;;;;;;;101.65;61.97;;;;;;;7.38;100.00;162495.22;5091317;28;20024;-57
2023/04/17 04:54:00;;;;;;;100.40;63.25;;;;;;;7.38;100.00;162493.91;5089527;28;20035;-57
2023/04/17 04:56:26;;;;;;;92.10;60.22;;;;;;;7.41;100.00;162502.00;5090957;28;20399;-57
2023/04/17 04:58:51;;;;;;;97.18;61.80;;;;;;;7.43;100.00;162507.34;5089401;28;20028;-57
2023/04/17 05:01:17;;;;;;;91.82;57.00;;;;;;;7.28;100.00;162469.63;5091024;28;20028;-57
2023/04/17 05:03:46;;;;;;;104.32;62.55;;;;;;;7.45;100.00;162512.75;5091119;28;20020;-56
2023/04/17 05:06:12;;;;;;;106.63;64.57;;;;;;;7.45;100.00;162512.75;5089006;28;20067;-57
2023/04/17 05:08:40;;;;;;;95.85;59.53;;;;;;;7.44;100.00;162510.06;5091170;28;20156;-57
2023/04/17 05:11:06;;;;;;;97.88;63.90;;;;;;;7.44;100.00;162510.06;5088959;28;20407;-57
2023/04/17 05:13:32;;;;;;;102.50;67.00;;;;;;;7.50;100.00;162526.19;5090560;28;20020;-57
2023/04/17 05:15:57;;;;;;;94.82;60.47;;;;;;;7.53;100.00;162534.31;5088946;28;20487;-57
2023/04/17 05:18:22;;;;;;;99.55;62.88;;;;;;;7.55;100.00;162539.72;5090870;28;20020;-57
2023/04/17 05:20:48;;;;;;;96.05;63.50;;;;;;;7.57;100.00;162545.06;5088942;28;20056;-57
2023/04/17 05:23:13;;;;;;;98.13;60.97;;;;;;;7.62;100.00;162558.56;5090732;28;20478;-57
2023/04/17 05:25:39;;;;;;;97.85;66.85;;;;;;;7.60;100.00;162551.78;5089298;28;20052;-57
2023/04/17 05:28:05;;;;;;;100.65;61.05;;;;;;;7.61;100.00;162555.88;5090271;28;20078;-57
2023/04/17 05:30:30;;;;;;;108.13;65.30;;;;;;;7.61;100.00;162555.88;5089303;28;20062;-57
2023/04/17 05:32:57;;;;;;;100.70;65.60;;;;;;;7.64;100.00;162562.59;5090498;28;20039;-57
2023/04/17 05:35:23;;;;;;;92.68;57.63;;;;;;;7.64;100.00;162562.59;5089019;28;20039;-57
2023/04/17 05:37:48;;;;;;;101.55;64.13;;;;;;;7.67;100.00;162569.31;5090723;28;20528;-57
2023/04/17 05:40:13;;;;;;;89.88;60.45;;;;;;;7.69;100.00;162574.72;5089142;28;20078;-57
2023/04/17 05:42:39;;;;;;;89.80;59.47;;;;;;;7.78;100.00;162599.00;5081401;28;20026;-57
2023/04/17 05:45:05;;;;;;;93.13;62.53;;;;;;;7.81;100.00;162607.06;5069087;28;20115;-57
2023/04/17 05:47:30;;;;;;;99.25;62.00;;;;;;;7.84;100.00;162615.16;5070548;28;20029;-57
2023/04/17 05:49:58;;;;;;;89.30;62.28;;;;;;;7.88;100.00;162625.91;5068615;28;20097;-57
2023/04/17 05:52:24;;;;;;;94.00;57.05;;;;;;;7.91;100.00;162634.00;5070642;28;20412;-57
2023/04/17 05:54:50;;;;;;;80.45;53.45;;;;;;;8.01;100.00;162658.22;5069039;28;20143;-57
2023/04/17 05:57:15;;;;;;;93.57;58.95;;;;;;;7.98;100.00;162650.19;5070982;28;20020;-57
2023/04/17 05:59:41;;;;;;;92.18;61.53;;;;;;;7.99;100.00;162652.88;5072860;28;20037;-57
2023/04/17 06:02:06;;;;;;;75.53;54.90;;;;;;;8.06;100.00;162671.75;5073982;28;20308;-57
2023/04/17 06:04:32;;;;;;;89.53;60.45;;;;;;;8.04;100.00;162667.66;5071642;28;20036;-57
2023/04/17 06:06:57;;;;;;;80.68;59.83;;;;;;;8.13;100.00;162690.63;5063513;28;20036;-57
2023/04/17 06:09:22;;;;;;;80.00;57.92;;;;;;;8.23;100.00;162717.53;5067783;28;20090;-57
2023/04/17 06:11:48;;;;;;;77.03;52.55;;;;;;;8.31;100.00;162736.41;5071107;28;20032;-57
2023/04/17 06:14:13;;;;;;;86.80;57.22;;;;;;;8.37;100.00;162752.63;5072375;28;20094;-57
2023/04/17 06:16:38;;;;;;;74.30;53.63;;;;;;;8.44;100.00;162771.50;5061432;28;20013;-57
2023/04/17 06:19:04;;;;;;;80.47;50.58;;;;;;;8.51;100.00;162790.41;5067814;28;20383;-57
2023/04/17 06:21:31;;;;;;;71.00;53.22;;;;;;;8.51;100.00;162790.41;5058258;28;20037;-57
2023/04/17 06:23:56;;;;;;;83.45;59.50;;;;;;;8.52;100.00;162793.09;5068069;28;20056;-57
2023/04/17 06:26:22;;;;;;;78.30;52.28;;;;;;;8.52;100.00;162793.09;5063172;28;20029;-57
2023/04/17 06:28:47;;;;;;;75.80;51.90;;;;;;;8.62;100.00;162817.34;5063891;28;20021;-56
2023/04/17 06:31:12;;;;;;;74.53;49.90;;;;;;;8.60;100.00;162811.97;5071703;28;20074;-57
2023/04/17 06:33:38;;;;;;;75.82;51.60;;;;;;;8.65;100.00;162825.44;5064710;28;20031;-57
2023/04/17 06:36:03;;;;;;;78.00;52.85;;;;;;;8.70;100.00;162838.91;5079211;28;20534;-57
2023/04/17 06:38:28;;;;;;;66.82;49.33;;;;;;;8.63;100.00;162820.03;5072744;28;20054;-56
2023/04/17 06:40:54;;;;;;;75.32;54.63;;;;;;;8.87;100.00;162884.78;5065324;28;20052;-56
2023/04/17 06:43:19;;;;;;;72.82;52.95;;;;;;;9.00;100.00;162917.13;5092524;28;20035;-57
2023/04/17 06:45:45;;;;;;;70.20;49.03;;;;;;;9.02;100.00;162922.53;5076605;28;20523;-57
2023/04/17 06:48:10;;;;;;;81.65;53.95;;;;;;;9.05;100.00;162930.59;5060260;28;20081;-57
2023/04/17 06:50:36;;;;;;;72.53;51.25;;;;;;;9.12;100.00;162949.47;5072034;28;20510;-57
2023/04/17 06:53:01;;;;;;;63.30;48.45;;;;;;;9.18;100.00;162964.31;5075856;28;20032;-57
2023/04/17 06:55:26;;;;;;;69.88;52.58;;;;;;;9.00;100.00;162917.13;5056997;28;20033;-57
2023/04/17 06:57:53;;;;;;;64.13;47.72;;;;;;;8.98;100.00;162911.72;5057217;28;20025;-57
2023/04/17 07:00:19;;;;;;;71.07;51.38;;;;;;;8.97;100.00;162909.06;5071343;28;20102;-57
2023/04/17 07:02:44;;;;;;;68.55;50.67;;;;;;;8.89;100.00;162890.19;5066539;28;20032;-57
2023/04/17 07:05:10;;;;;;;68.28;52.85;;;;;;;9.01;100.00;162919.81;5071534;28;20037;-57
2023/04/17 07:07:35;;;;;;;66.43;50.45;;;;;;;9.08;100.00;162938.69;5072453;28;20571;-57
2023/04/17 07:10:04;;;;;;;68.78;49.50;;;;;;;9.06;100.00;162933.28;5071147;28;20043;-57
2023/04/17 07:12:30;;;;;;;60.85;48.83;;;;;;;9.09;100.00;162941.41;5073021;28;20032;-57
2023/04/17 07:14:55;;;;;;;61.78;47.10;;;;;;;9.15;100.00;162957.56;5070829;28;20041;-57
2023/04/17 07:17:20;;;;;;;62.53;46.28;;;;;;;9.05;100.00;162930.59;5072484;28;20028;-57
2023/04/17 07:19:46;;;;;;;64.35;47.08;;;;;;;9.09;100.00;162940.03;5071190;28;20047;-57
2023/04/17 07:22:11;;;;;;;62.67;46.38;;;;;;;9.08;100.00;162938.69;5072193;28;20090;-57
2023/04/17 07:24:36;;;;;;;60.70;48.45;;;;;;;9.28;100.00;162991.31;5070936;28;20040;-57
2023/04/17 07:27:02;;;;;;;61.83;46.05;;;;;;;9.37;100.00;163014.22;5072552;28;20353;-57
2023/04/17 07:29:28;;;;;;;65.75;48.17;;;;;;;9.55;100.00;163060.09;5070939;28;20510;-57
2023/04/17 07:31:53;;;;;;;61.47;44.97;;;;;;;9.48;100.00;163043.91;5071957;28;20025;-57
2023/04/17 07:34:19;;;;;;;58.03;44.50;;;;;;;9.46;100.00;163038.50;5071047;28;20399;-57
2023/04/17 07:36:46;;;;;;;62.58;44.67;;;;;;;9.33;100.00;163003.44;5072295;28;20098;-57
2023/04/17 07:39:11;;;;;;;63.88;43.75;;;;;;;9.39;100.00;163019.63;5070739;28;20040;-57
2023/04/17 07:41:37;;;;;;;57.20;45.72;;;;;;;9.47;100.00;163039.81;5071938;28;20025;-57
2023/04/17 07:44:04;;;;;;;57.17;41.63;;;;;;;9.40;100.00;163020.94;5070453;28;20028;-57
2023/04/17 07:46:30;;;;;;;64.07;44.50;;;;;;;9.40;100.00;163022.31;5072421;28;20027;-57
2023/04/17 07:48:55;;;;;;;55.53;43.95;;;;;;;9.48;100.00;163043.91;5070282;28;20025;-57
2023/04/17 07:51:20;;;;;;;51.80;42.72;;;;;;;9.68;100.00;163095.16;5072236;28;20020;-57
2023/04/17 07:53:46;;;;;;;52.03;44.13;;;;;;;9.88;100.00;163146.41;5072051;28;20024;-57
2023/04/17 07:56:12;;;;;;;53.10;39.75;;;;;;;10.15;100.00;163219.28;5070144;28;20364;-57
2023/04/17 07:58:37;;;;;;;54.03;41.50;;;;;;;10.35;100.00;163270.56;5072100;28;20020;-57
2023/04/17 08:01:04;;;;;;;46.65;37.28;;;;;;;10.59;100.00;163332.72;5070686;28;20037;-57
2023/04/17 08:03:30;;;;;;;53.25;38.15;;;;;;;10.81;100.00;163389.41;5071781;28;20036;-57
2023/04/17 08:05:56;;;;;;;41.00;32.85;;;;;;;10.87;100.00;163405.59;5070044;28;20077;-57
2023/04/17 08:08:22;;;;;;;39.20;30.55;;;;;;;11.00;100.00;163439.34;5072003;28;20065;-57
2023/04/17 08:10:48;;;;;;;42.70;33.92;;;;;;;10.74;100.00;163373.22;5070231;28;20033;-57
2023/04/17 08:13:13;;;;;;;41.58;31.35;;;;;;;10.93;100.00;163421.78;5071447;28;20480;-57
2023/04/17 08:15:39;;;;;;;36.72;30.80;;;;;;;10.89;100.00;163411.00;5070154;28;20384;-57
2023/04/17 08:18:06;;;;;;;42.28;29.52;;;;;;;10.72;100.00;163367.78;5071284;28;20026;-57
2023/04/17 08:20:32;;;;;;;38.03;30.08;;;;;;;11.02;100.00;163446.09;5069444;28;20040;-57
2023/04/17 08:22:58;;;;;;;40.65;31.13;;;;;;;11.07;100.00;163459.59;5071531;28;20100;-57
2023/04/17 08:25:24;;;;;;;50.13;31.80;;;;;;;11.25;100.00;163505.50;5069639;28;20063;-57
2023/04/17 08:27:49;;;;;;;44.38;30.15;;;;;;;11.40;100.00;163544.66;5071304;28;20060;-57
2023/04/17 08:30:16;;;;;;;48.28;30.08;;;;;;;11.28;100.00;163513.63;5069705;28;20036;-57
2023/04/17 08:32:44;;;;;;;36.28;26.92;;;;;;;11.16;100.00;163481.19;5071022;28;20025;-57
2023/04/17 08:35:10;;;;;;;35.67;27.67;;;;;;;11.26;100.00;163508.22;5069658;28;20067;-57
2023/04/17 08:37:36;;;;;;;33.78;25.08;;;;;;;11.44;100.00;163555.47;5071541;28;20043;-57
2023/04/17 08:40:03;;;;;;;35.00;27.95;;;;;;;11.80;100.00;163650.03;5069181;28;20041;-57
2023/04/17 08:42:30;;;;;;;34.10;29.88;;;;;;;11.57;100.00;163589.25;5071386;28;20021;-57
2023/04/17 08:45:00;;;;;;;40.17;30.42;;;;;;;11.40;100.00;163546.03;5069761;28;20090;-57
2023/04/17 08:47:27;;;;;;;38.83;28.05;;;;;;;11.69;100.00;163621.66;5070611;28;20032;-57
2023/04/17 08:49:54;;;;;;;38.25;30.40;;;;;;;11.91;100.00;163678.38;5068194;28;20040;-57
2023/04/17 08:52:20;;;;;;;34.20;28.42;;;;;;;11.64;100.00;163608.16;5069718;28;20441;-57
2023/04/17 08:54:46;;;;;;;42.17;30.30;;;;;;;12.18;100.00;163748.66;5069051;28;20040;-57
2023/04/17 08:57:11;;;;;;;41.10;29.17;;;;;;;12.29;100.00;163778.41;5070967;28;20353;-57
2023/04/17 08:59:37;;;;;;;42.85;28.13;;;;;;;12.46;100.00;163821.66;5069574;28;20048;-57
2023/04/17 09:02:04;;;;;;;32.60;27.55;;;;;;;12.15;100.00;163741.91;5070298;28;20027;-59
2023/04/17 09:04:38;;;;;;;35.22;24.52;;;;;;;12.06;100.00;163718.97;5069525;28;20087;-57
2023/04/17 09:07:08;;;;;;;30.75;21.45;;;;;;;11.98;100.00;163697.34;5070420;28;20021;-57
2023/04/17 09:09:49;;;;;;;29.38;21.55;;;;;;;12.46;100.00;163823.00;5069117;28;20036;-57
2023/04/17 09:12:14;;;;;;;34.15;23.35;;;;;;;12.67;100.00;163878.44;5070586;28;20051;-58
2023/04/17 09:14:40;;;;;;;21.98;19.00;;;;;;;12.65;100.00;163871.69;5069352;28;20032;-57
2023/04/17 09:17:05;;;;;;;30.90;21.73;;;;;;;12.58;100.00;163854.09;5070293;28;20056;-57
2023/04/17 09:19:31;;;;;;;25.25;20.35;;;;;;;12.59;100.00;163856.78;5069408;28;20398;-57
2023/04/17 09:21:56;;;;;;;40.70;23.45;;;;;;;12.48;100.00;163828.41;5070238;28;20060;-57
2023/04/17 09:24:35;;;;;;;30.30;22.80;;;;;;;12.67;100.00;163878.44;5068843;28;20037;-57
2023/04/17 09:27:21;;;;;;;27.35;20.98;;;;;;;13.18;100.00;164010.88;5070512;28;20024;-57
2023/04/17 09:30:05;;;;;;;30.95;23.15;;;;;;;13.73;100.00;164154.28;5069107;28;20043;-57
2023/04/17 09:32:32;;;;;;;27.20;20.75;;;;;;;13.84;100.00;164184.00;5071822;28;20650;-57
2023/04/17 09:35:00;;;;;;;21.92;17.88;;;;;;;14.40;100.00;164330.13;5072947;28;20044;-58
2023/04/17 09:37:46;;;;;;;23.08;18.30;;;;;;;14.62;100.00;164386.94;5074890;28;20025;-58
2023/04/17 09:40:11;;;;;;;17.02;15.20;;;;;;;14.86;100.00;164451.91;5072944;28;20033;-57
2023/04/17 09:42:53;;;;;;;23.42;17.73;;;;;;;14.57;100.00;164376.09;5074528;28;20028;-57
2023/04/17 09:45:21;;;;;;;27.30;21.08;;;;;;;14.82;100.00;164441.13;5072696;28;20045;-57
2023/04/17 09:47:47;;;;;;;30.77;18.58;;;;;;;14.77;100.00;164427.59;5074473;28;20498;-58
2023/04/17 09:50:23;;;;;;;24.25;19.08;;;;;;;14.75;100.00;164423.50;5072959;28;20368;-57
2023/04/17 09:52:55;;;;;;;23.17;16.63;;;;;;;15.24;100.00;164550.75;5074032;28;20491;-58
2023/04/17 09:55:22;;;;;;;22.52;17.90;;;;;;;15.50;100.00;164619.78;5072973;28;20048;-58
2023/04/17 09:57:51;;;;;;;21.10;16.42;;;;;;;15.64;100.00;164654.97;5074124;28;20119;-58
2023/04/17 10:00:19;;;;;;;22.83;18.00;;;;;;;15.76;100.00;164687.47;5072303;28;20513;-58
2023/04/17 10:02:52;;;;;;;24.42;16.65;;;;;;;15.78;100.00;164691.56;5074276;28;20045;-57
2023/04/17 10:05:19;;;;;;;19.55;15.35;;;;;;;15.77;100.00;164690.16;5072547;28;20045;-57
2023/04/17 10:07:45;;;;;;;19.52;15.55;;;;;;;15.90;100.00;164722.75;5080426;28;20475;-57
2023/04/17 10:10:20;;;;;;;17.27;14.25;;;;;;;15.27;100.00;164558.84;5072941;28;20048;-57
2023/04/17 10:12:47;;;;;;;20.98;15.77;;;;;;;15.27;100.00;164557.50;5054212;28;20025;-57
2023/04/17 10:15:14;;;;;;;21.58;16.75;;;;;;;15.47;100.00;164611.66;5068326;28;20045;-58
2023/04/17 10:17:39;;;;;;;25.10;17.95;;;;;;;14.66;100.00;164399.19;5090084;28;20065;-58
2023/04/17 10:20:14;;;;;;;29.23;17.48;;;;;;;15.40;100.00;164592.69;5091265;28;20039;-58
2023/04/17 10:22:40;;;;;;;25.05;16.35;;;;;;;15.68;100.00;164667.16;5093337;28;20063;-58
2023/04/17 10:25:11;;;;;;;18.55;15.00;;;;;;;16.01;100.00;164753.84;5092069;28;20044;-58
2023/04/17 10:27:37;;;;;;;23.23;14.63;;;;;;;15.48;100.00;164614.34;5093828;28;20706;-58
2023/04/17 10:30:06;;;;;;;21.85;15.65;;;;;;;15.04;100.00;164497.94;5090209;28;20089;-60
2023/04/17 10:32:33;;;;;;;19.38;15.70;;;;;;;14.82;100.00;164439.78;5085025;28;20028;-58
2023/04/17 10:35:16;;;;;;;25.75;14.70;;;;;;;15.10;100.00;164512.84;5085270;28;20048;-59
2023/04/17 10:37:48;;;;;;;22.65;16.63;;;;;;;14.54;100.00;164368.00;5092469;28;20032;-58
2023/04/17 10:40:28;;;;;;;25.58;14.90;;;;;;;14.42;100.00;164335.50;5092107;28;20449;-58
2023/04/17 10:43:13;;;;;;;17.13;14.68;;;;;;;14.04;100.00;164236.78;5092884;28;20036;-59
2023/04/17 10:45:52;;;;;;;19.92;15.43;;;;;;;13.57;100.00;164112.31;5091823;28;20101;-58
2023/04/17 10:48:29;;;;;;;22.80;16.20;;;;;;;13.78;100.00;164167.78;5093400;28;20383;-59
2023/04/17 10:50:55;;;;;;;22.80;15.40;;;;;;;13.74;100.00;164156.94;5092085;28;20044;-58
2023/04/17 10:53:43;;;;;;;25.10;16.40;;;;;;;13.90;100.00;164200.25;5093398;28;20058;-58
2023/04/17 10:56:23;;;;;;;20.73;15.80;;;;;;;14.15;100.00;164265.19;5091861;28;20399;-58
2023/04/17 10:59:03;;;;;;;20.75;16.38;;;;;;;14.53;100.00;164365.28;5093550;28;20042;-58
2023/04/17 11:01:35;;;;;;;20.98;17.15;;;;;;;14.66;100.00;164399.19;5092051;28;20048;-58
2023/04/17 11:04:01;;;;;;;18.95;15.57;;;;;;;15.23;100.00;164549.38;5091620;28;20016;-58
2023/04/17 11:06:28;;;;;;;19.58;16.50;;;;;;;15.17;100.00;164533.13;5092979;28;20039;-58